Terminal Aerodrome Forecast
Issued by NWS

Home | Current Version | Previous Version | Graphics & Text | Print | Product List | Glossary On
Versions: 1 2 3 4 5 6 7 8 9 10 11 12 13 14 15 16 17 18 19 20 21 22
000
FTUS43 KBIS 252300
TAFJMS
TAF
KJMS 252325Z 2600/2624 30009KT P6SM SCT025 BKN035
     FM260800 VRB05KT P6SM SCT050
     FM261800 20006KT P6SM BKN080=

USA.gov is the U.S. government's official web portal to all federal, state and local government web resources and services.